createdAt,value
2018-01-06T00:01:04.576Z,7.72
2018-01-06T00:03:32.399Z,7.64
2018-01-06T00:05:59.853Z,7.57
2018-01-06T00:08:27.554Z,7.59
2018-01-06T00:10:55.537Z,7.67
2018-01-06T00:13:23.248Z,7.78
2018-01-06T00:15:51.171Z,7.85
2018-01-06T00:18:18.841Z,7.77
2018-01-06T00:20:46.644Z,7.63
2018-01-06T00:23:14.777Z,7.56
2018-01-06T00:25:42.424Z,7.65
2018-01-06T00:28:10.125Z,7.34
2018-01-06T00:30:38.080Z,7.45
2018-01-06T00:33:05.553Z,7.46
2018-01-06T00:35:33.047Z,7.56
2018-01-06T00:38:00.781Z,7.56
2018-01-06T00:40:28.248Z,7.65
2018-01-06T00:42:55.711Z,7.63
2018-01-06T00:45:23.732Z,7.71
2018-01-06T00:47:52.014Z,7.54
2018-01-06T00:50:19.635Z,7.45
2018-01-06T00:52:47.762Z,7.40
2018-01-06T00:55:15.435Z,7.41
2018-01-06T00:57:43.211Z,7.38
2018-01-06T01:00:11.278Z,7.28
2018-01-06T01:02:38.738Z,7.31
2018-01-06T01:05:08.454Z,7.27
2018-01-06T01:07:36.446Z,7.25
2018-01-06T01:10:03.929Z,7.28
2018-01-06T01:12:31.408Z,7.29
2018-01-06T01:14:59.768Z,7.35
2018-01-06T01:17:27.270Z,7.23
2018-01-06T01:19:54.739Z,7.21
2018-01-06T01:22:22.448Z,7.19
2018-01-06T01:24:49.918Z,7.14
2018-01-06T01:27:17.367Z,7.13
2018-01-06T01:29:45.384Z,7.08
2018-01-06T01:32:13.425Z,7.10
2018-01-06T01:34:40.877Z,7.15
2018-01-06T01:37:09.003Z,7.13
2018-01-06T01:39:37.151Z,7.22
2018-01-06T01:42:04.611Z,7.21
2018-01-06T01:44:32.306Z,7.15
2018-01-06T01:47:02.531Z,7.27
2018-01-06T01:49:30.000Z,7.22
2018-01-06T01:51:57.456Z,7.30
2018-01-06T01:54:25.212Z,7.29
2018-01-06T01:56:52.670Z,7.25
2018-01-06T01:59:20.118Z,7.30
2018-01-06T02:01:47.753Z,7.27
2018-01-06T02:04:15.210Z,7.26
2018-01-06T02:06:42.674Z,7.30
2018-01-06T02:09:10.598Z,7.31
2018-01-06T02:11:38.060Z,7.33
2018-01-06T02:14:05.521Z,7.36
2018-01-06T02:16:33.588Z,7.32
2018-01-06T02:19:01.051Z,7.34
2018-01-06T02:21:28.502Z,7.32
2018-01-06T02:23:56.585Z,7.21
2018-01-06T02:26:24.041Z,7.15
2018-01-06T02:28:51.530Z,7.19
2018-01-06T02:31:19.575Z,7.19
2018-01-06T02:33:47.040Z,7.18
2018-01-06T02:36:14.508Z,7.22
2018-01-06T02:38:42.573Z,7.21
2018-01-06T02:41:10.030Z,7.21
2018-01-06T02:43:37.492Z,7.21
2018-01-06T02:46:05.262Z,7.19
2018-01-06T02:48:32.717Z,7.21
2018-01-06T02:51:00.235Z,7.15
2018-01-06T02:53:27.949Z,7.12
2018-01-06T02:55:55.409Z,7.10
2018-01-06T02:58:22.874Z,6.89
2018-01-06T03:00:50.629Z,6.82
2018-01-06T03:03:18.083Z,6.92
2018-01-06T03:05:45.538Z,6.93
2018-01-06T03:08:13.324Z,6.82
2018-01-06T03:10:40.785Z,6.97
2018-01-06T03:13:08.252Z,6.93
2018-01-06T03:15:35.988Z,6.69
2018-01-06T03:18:03.441Z,6.58
2018-01-06T03:20:30.908Z,6.57
2018-01-06T03:22:59.302Z,6.52
2018-01-06T03:25:26.770Z,6.47
2018-01-06T03:27:54.228Z,6.37
2018-01-06T03:30:22.007Z,6.32
2018-01-06T03:32:49.470Z,6.28
2018-01-06T03:35:16.931Z,6.14
2018-01-06T03:37:44.685Z,6.13
2018-01-06T03:40:12.144Z,6.09
2018-01-06T03:42:39.598Z,5.99
2018-01-06T03:45:07.373Z,5.89
2018-01-06T03:47:34.829Z,5.79
2018-01-06T03:50:02.293Z,5.69
2018-01-06T03:52:30.062Z,5.72
2018-01-06T03:54:58.910Z,5.69
2018-01-06T03:57:26.373Z,5.81
2018-01-06T03:59:54.281Z,5.88
2018-01-06T04:02:21.740Z,5.74
2018-01-06T04:04:49.188Z,5.66
2018-01-06T04:07:17.281Z,5.57
2018-01-06T04:09:44.741Z,5.52
2018-01-06T04:12:12.200Z,5.49
2018-01-06T04:14:39.966Z,5.49
2018-01-06T04:17:07.425Z,5.43
2018-01-06T04:19:34.886Z,5.35
2018-01-06T04:22:02.673Z,5.34
2018-01-06T04:24:30.135Z,5.23
2018-01-06T04:26:57.588Z,5.34
2018-01-06T04:29:25.327Z,5.23
2018-01-06T04:31:52.784Z,5.31
2018-01-06T04:34:20.235Z,5.29
2018-01-06T04:36:47.953Z,5.29
2018-01-06T04:39:15.405Z,5.33
2018-01-06T04:41:42.858Z,5.23
2018-01-06T04:44:10.662Z,5.21
2018-01-06T04:46:38.118Z,5.16
2018-01-06T04:49:05.571Z,5.10
2018-01-06T04:51:34.017Z,5.09
2018-01-06T04:54:01.476Z,5.16
2018-01-06T04:56:28.932Z,4.99
2018-01-06T04:58:56.702Z,4.97
2018-01-06T05:01:24.165Z,5.00
2018-01-06T05:03:51.624Z,5.09
2018-01-06T05:06:19.690Z,5.05
2018-01-06T05:08:47.161Z,4.87
2018-01-06T05:11:14.625Z,4.83
2018-01-06T05:13:42.441Z,4.93
2018-01-06T05:16:09.887Z,4.81
2018-01-06T05:18:37.344Z,4.79
2018-01-06T05:21:05.068Z,4.85
2018-01-06T05:23:32.525Z,4.83
2018-01-06T05:25:59.989Z,4.61
2018-01-06T05:28:27.673Z,4.68
2018-01-06T05:30:55.128Z,4.99
2018-01-06T05:33:22.584Z,4.93
2018-01-06T05:35:50.434Z,5.10
2018-01-06T05:38:17.888Z,5.18
2018-01-06T05:40:45.338Z,5.29
2018-01-06T05:43:13.142Z,5.36
2018-01-06T05:45:40.601Z,5.57
2018-01-06T05:48:08.063Z,5.64
2018-01-06T05:50:35.807Z,5.73
2018-01-06T05:53:03.979Z,5.68
2018-01-06T05:55:31.443Z,5.86
2018-01-06T05:57:59.421Z,5.89
2018-01-06T06:00:26.887Z,5.91
2018-01-06T06:02:54.350Z,5.92
2018-01-06T06:05:22.112Z,6.00
2018-01-06T06:07:49.571Z,5.94
2018-01-06T06:10:17.034Z,5.94
2018-01-06T06:12:44.921Z,6.00
2018-01-06T06:15:12.376Z,5.94
2018-01-06T06:17:39.837Z,5.97
2018-01-06T06:20:08.421Z,5.92
2018-01-06T06:22:35.879Z,5.91
2018-01-06T06:25:03.338Z,5.82
2018-01-06T06:27:30.973Z,5.75
2018-01-06T06:29:58.425Z,5.69
2018-01-06T06:32:25.869Z,5.56
2018-01-06T06:34:53.541Z,5.51
2018-01-06T06:37:20.997Z,5.38
2018-01-06T06:39:48.444Z,5.30
2018-01-06T06:42:16.220Z,5.25
2018-01-06T06:44:43.699Z,5.24
2018-01-06T06:47:11.159Z,5.21
2018-01-06T06:49:39.158Z,5.19
2018-01-06T06:52:06.615Z,5.21
2018-01-06T06:54:34.501Z,5.21
2018-01-06T06:57:02.768Z,5.20
2018-01-06T06:59:30.225Z,5.26
2018-01-06T07:01:57.677Z,5.10
2018-01-06T07:04:25.449Z,5.09
2018-01-06T07:06:52.898Z,5.05
2018-01-06T07:09:20.341Z,5.12
2018-01-06T07:11:48.165Z,4.98
2018-01-06T07:14:15.624Z,5.00
2018-01-06T07:16:43.086Z,5.00
2018-01-06T07:19:10.830Z,4.93
2018-01-06T07:21:38.289Z,4.85
2018-01-06T07:24:05.773Z,4.82
2018-01-06T07:26:33.816Z,4.87
2018-01-06T07:29:01.268Z,4.93
2018-01-06T07:31:28.717Z,5.37
2018-01-06T07:33:56.502Z,5.36
2018-01-06T07:36:23.953Z,4.98
2018-01-06T07:38:51.413Z,4.94
2018-01-06T07:41:19.226Z,4.99
2018-01-06T07:43:46.681Z,4.99
2018-01-06T07:46:14.136Z,5.01
2018-01-06T07:48:41.925Z,5.01
2018-01-06T07:51:09.349Z,4.96
2018-01-06T07:53:36.813Z,4.94
2018-01-06T07:56:05.178Z,4.97
2018-01-06T07:58:32.644Z,5.07
2018-01-06T08:01:00.114Z,5.21
2018-01-06T08:03:28.183Z,5.26
2018-01-06T08:05:55.639Z,5.28
2018-01-06T08:08:23.181Z,5.32
2018-01-06T08:10:51.179Z,5.47
2018-01-06T08:13:18.637Z,5.53
2018-01-06T08:15:46.091Z,5.60
2018-01-06T08:18:13.853Z,5.69
2018-01-06T08:20:41.306Z,5.78
2018-01-06T08:23:08.782Z,5.87
2018-01-06T08:25:36.552Z,6.03
2018-01-06T08:28:04.018Z,6.18
2018-01-06T08:30:31.480Z,6.21
2018-01-06T08:32:59.415Z,6.29
2018-01-06T08:35:26.876Z,6.36
2018-01-06T08:37:54.331Z,6.39
2018-01-06T08:40:22.239Z,6.46
2018-01-06T08:42:49.758Z,6.55
2018-01-06T08:45:17.208Z,6.54
2018-01-06T08:47:45.224Z,6.56
2018-01-06T08:50:12.697Z,6.55
2018-01-06T08:52:40.159Z,6.45
2018-01-06T08:55:07.886Z,6.43
2018-01-06T08:57:38.805Z,6.57
2018-01-06T09:00:06.260Z,6.58
2018-01-06T09:02:33.981Z,7.25
2018-01-06T09:05:01.450Z,7.64
2018-01-06T09:07:28.909Z,7.24
2018-01-06T09:09:56.660Z,7.52
2018-01-06T09:12:24.136Z,7.56
2018-01-06T09:14:51.593Z,7.55
2018-01-06T09:17:19.346Z,7.45
2018-01-06T09:19:46.840Z,7.55
2018-01-06T09:22:14.308Z,7.48
2018-01-06T09:24:42.040Z,7.52
2018-01-06T09:27:09.494Z,7.71
2018-01-06T09:29:36.948Z,7.83
2018-01-06T09:32:04.721Z,7.99
2018-01-06T09:34:32.189Z,7.99
2018-01-06T09:36:59.658Z,8.20
2018-01-06T09:39:27.400Z,8.26
2018-01-06T09:41:54.860Z,8.41
2018-01-06T09:44:22.318Z,8.19
2018-01-06T09:46:50.098Z,8.40
2018-01-06T09:49:17.568Z,8.31
2018-01-06T09:51:45.030Z,8.38
2018-01-06T09:54:12.785Z,8.39
2018-01-06T09:56:40.262Z,8.71
2018-01-06T09:59:08.080Z,8.66
2018-01-06T10:01:36.089Z,8.78
2018-01-06T10:04:03.545Z,8.80
2018-01-06T10:06:31.009Z,8.86
2018-01-06T10:08:59.086Z,8.87
2018-01-06T10:11:26.541Z,8.87
2018-01-06T10:13:54.006Z,8.95
2018-01-06T10:16:21.770Z,9.16
2018-01-06T10:18:49.238Z,9.33
2018-01-06T10:21:16.699Z,9.49
2018-01-06T10:23:44.761Z,9.43
2018-01-06T10:26:12.218Z,9.58
2018-01-06T10:28:39.686Z,9.74
2018-01-06T10:31:07.764Z,9.76
2018-01-06T10:33:35.209Z,9.77
2018-01-06T10:36:02.669Z,9.72
2018-01-06T10:38:30.754Z,9.93
2018-01-06T10:40:58.224Z,10.15
2018-01-06T10:43:25.682Z,9.77
2018-01-06T10:45:54.056Z,10.08
2018-01-06T10:48:21.518Z,10.11
2018-01-06T10:50:48.978Z,10.12
2018-01-06T10:53:16.741Z,10.46
2018-01-06T10:55:44.728Z,10.72
2018-01-06T10:58:12.190Z,10.69
2018-01-06T11:00:47.104Z,10.97
2018-01-06T11:03:14.566Z,11.21
2018-01-06T11:05:42.073Z,11.42
2018-01-06T11:08:09.801Z,11.44
2018-01-06T11:10:37.260Z,12.00
2018-01-06T11:13:04.725Z,12.15
2018-01-06T11:15:32.490Z,12.19
2018-01-06T11:17:59.953Z,13.00
2018-01-06T11:20:27.405Z,13.35
2018-01-06T11:22:55.173Z,13.51
2018-01-06T11:25:22.635Z,14.02
2018-01-06T11:27:50.091Z,12.90
2018-01-06T11:30:17.853Z,14.07
2018-01-06T11:32:45.305Z,14.39
2018-01-06T11:35:12.753Z,15.20
2018-01-06T11:37:40.540Z,15.61
2018-01-06T11:40:08.004Z,15.91
2018-01-06T11:42:35.457Z,15.76
2018-01-06T11:45:03.528Z,14.36
2018-01-06T11:47:31.004Z,14.63
2018-01-06T11:49:58.457Z,14.26
2018-01-06T11:52:26.172Z,14.08
2018-01-06T11:54:53.637Z,15.21
2018-01-06T11:57:21.093Z,16.54
2018-01-06T11:59:49.217Z,16.32
2018-01-06T12:02:17.057Z,16.80
2018-01-06T12:04:44.510Z,16.80
2018-01-06T12:07:12.514Z,16.53
2018-01-06T12:09:39.973Z,15.72
2018-01-06T12:12:07.427Z,15.72
2018-01-06T12:14:35.452Z,15.56
2018-01-06T12:17:02.903Z,14.50
2018-01-06T12:19:30.362Z,15.33
2018-01-06T12:21:58.233Z,15.66
2018-01-06T12:24:25.689Z,15.02
2018-01-06T12:26:53.145Z,15.14
2018-01-06T12:29:20.960Z,15.42
2018-01-06T12:31:48.417Z,15.45
2018-01-06T12:34:15.865Z,14.87
2018-01-06T12:43:27.544Z,15.83
2018-01-06T12:45:54.985Z,15.74
2018-01-06T12:48:22.433Z,15.88
2018-01-06T12:50:50.244Z,15.98
2018-01-06T12:53:17.696Z,15.95
2018-01-06T12:55:45.137Z,16.52
2018-01-06T12:58:12.905Z,16.58
2018-01-06T13:00:40.366Z,17.03
2018-01-06T13:03:08.533Z,18.27
2018-01-06T13:05:36.231Z,17.73
2018-01-06T13:08:03.690Z,16.96
2018-01-06T13:10:31.149Z,16.87
2018-01-06T13:12:58.912Z,15.36
2018-01-06T13:15:26.360Z,15.67
2018-01-06T13:17:53.808Z,16.52
2018-01-06T13:20:21.473Z,15.61
2018-01-06T13:22:48.916Z,16.08
2018-01-06T13:25:16.364Z,15.18
2018-01-06T13:27:44.301Z,15.53
2018-01-06T13:30:11.752Z,14.62
2018-01-06T13:32:39.195Z,14.95
2018-01-06T13:35:06.962Z,15.28
2018-01-06T13:37:34.411Z,14.50
2018-01-06T13:40:01.857Z,14.53
2018-01-06T13:42:29.597Z,14.36
2018-01-06T13:44:57.050Z,14.27
2018-01-06T13:47:24.501Z,14.96
2018-01-06T13:49:53.276Z,16.24
2018-01-06T13:52:20.741Z,15.19
2018-01-06T13:54:48.209Z,15.98
2018-01-06T13:57:15.961Z,14.68
2018-01-06T13:59:43.473Z,15.86
2018-01-06T14:02:10.925Z,16.15
2018-01-06T14:04:39.573Z,14.32
2018-01-06T14:07:07.033Z,15.34
2018-01-06T14:09:34.491Z,15.50
2018-01-06T14:12:02.286Z,16.11
2018-01-06T14:14:29.750Z,15.32
2018-01-06T14:16:57.198Z,16.28
2018-01-06T14:19:24.954Z,14.69
2018-01-06T14:21:52.412Z,15.70
2018-01-06T14:24:19.867Z,16.34
2018-01-06T14:26:48.241Z,15.49
2018-01-06T14:29:15.694Z,15.07
2018-01-06T14:31:43.140Z,15.18
2018-01-06T14:34:10.937Z,14.71
2018-01-06T14:36:38.395Z,14.51
2018-01-06T14:39:05.857Z,14.50
2018-01-06T14:41:33.622Z,14.20
2018-01-06T14:44:01.082Z,13.74
2018-01-06T14:46:28.542Z,14.49
2018-01-06T14:48:56.309Z,13.63
2018-01-06T14:51:23.764Z,14.17
2018-01-06T14:53:51.462Z,13.66
2018-01-06T14:56:19.926Z,13.18
2018-01-06T14:58:47.601Z,13.00
2018-01-06T15:01:15.433Z,12.63
2018-01-06T15:03:43.216Z,12.47
2018-01-06T15:06:11.682Z,11.82
2018-01-06T15:08:39.155Z,11.49
2018-01-06T15:11:07.144Z,11.07
2018-01-06T15:13:34.596Z,10.98
2018-01-06T15:16:02.060Z,10.61
2018-01-06T15:18:29.820Z,10.76
2018-01-06T15:20:57.326Z,10.37
2018-01-06T15:23:24.794Z,10.37
2018-01-06T15:25:53.133Z,10.25
2018-01-06T15:28:20.585Z,9.95
2018-01-06T15:30:48.043Z,9.94
2018-01-06T15:33:15.812Z,9.79
2018-01-06T15:35:43.264Z,9.77
2018-01-06T15:38:10.743Z,10.04
2018-01-06T15:40:38.496Z,9.82
2018-01-06T15:43:06.137Z,9.44
2018-01-06T15:45:33.601Z,9.18
2018-01-06T15:48:01.557Z,9.10
2018-01-06T15:50:29.027Z,9.04
2018-01-06T15:52:56.505Z,8.84
2018-01-06T15:55:24.142Z,8.77
2018-01-06T15:57:51.645Z,8.69
2018-01-06T16:00:19.117Z,8.63
2018-01-06T16:02:47.172Z,8.69
2018-01-06T16:05:14.653Z,8.72
2018-01-06T16:07:42.790Z,8.60
2018-01-06T16:10:10.514Z,8.43
2018-01-06T16:12:37.979Z,8.37
2018-01-06T16:15:05.443Z,8.32
2018-01-06T16:17:33.461Z,8.33
2018-01-06T16:20:00.941Z,8.26
2018-01-06T16:22:28.391Z,8.14
2018-01-06T16:24:56.459Z,8.14
2018-01-06T16:27:23.914Z,8.17
2018-01-06T16:29:51.637Z,8.00
2018-01-06T16:32:19.457Z,7.90
2018-01-06T16:34:46.937Z,7.78
2018-01-06T16:37:14.396Z,7.70
2018-01-06T16:39:42.338Z,7.61
2018-01-06T16:42:09.785Z,7.60
2018-01-06T16:44:37.240Z,7.54
2018-01-06T16:47:04.910Z,7.32
2018-01-06T16:49:32.372Z,7.27
2018-01-06T16:51:59.839Z,7.22
2018-01-06T16:54:27.834Z,7.11
2018-01-06T16:56:55.297Z,7.10
2018-01-06T16:59:22.759Z,7.08
2018-01-06T17:01:50.581Z,6.98
2018-01-06T17:04:18.036Z,6.85
2018-01-06T17:06:45.502Z,6.73
2018-01-06T17:09:13.836Z,6.70
2018-01-06T17:11:41.382Z,6.60
2018-01-06T17:14:08.839Z,6.51
2018-01-06T17:16:36.801Z,6.43
2018-01-06T17:19:04.257Z,6.30
2018-01-06T17:21:31.986Z,6.22
2018-01-06T17:23:59.811Z,6.12
2018-01-06T17:26:27.351Z,6.11
2018-01-06T17:28:54.801Z,6.02
2018-01-06T17:31:22.637Z,5.94
2018-01-06T17:33:50.194Z,5.82
2018-01-06T17:36:17.667Z,5.62
2018-01-06T17:38:46.714Z,5.52
2018-01-06T17:41:14.187Z,5.51
2018-01-06T17:43:41.652Z,5.48
2018-01-06T17:46:09.398Z,5.59
2018-01-06T17:48:36.856Z,5.59
2018-01-06T17:51:04.330Z,5.64
2018-01-06T17:53:32.094Z,5.60
2018-01-06T17:55:59.550Z,5.60
2018-01-06T17:58:27.030Z,5.71
2018-01-06T18:00:55.372Z,5.84
2018-01-06T18:03:22.838Z,5.70
2018-01-06T18:05:50.300Z,5.84
2018-01-06T18:08:18.076Z,5.89
2018-01-06T18:10:46.225Z,5.87
2018-01-06T18:13:13.707Z,5.62
2018-01-06T18:15:41.664Z,5.91
2018-01-06T18:18:09.122Z,5.82
2018-01-06T18:20:36.583Z,5.93
2018-01-06T18:23:04.369Z,5.98
2018-01-06T18:25:31.826Z,5.93
2018-01-06T18:27:59.287Z,6.07
2018-01-06T18:30:27.060Z,5.99
2018-01-06T18:32:54.521Z,6.01
2018-01-06T18:35:21.997Z,6.06
2018-01-06T18:37:49.810Z,6.18
2018-01-06T18:40:17.271Z,6.21
2018-01-06T18:42:44.732Z,6.28
2018-01-06T18:45:12.709Z,6.16
2018-01-06T18:47:40.173Z,6.12
2018-01-06T18:50:07.633Z,6.10
2018-01-06T18:52:35.429Z,6.35
2018-01-06T18:55:02.890Z,6.29
2018-01-06T18:57:30.364Z,6.31
2018-01-06T18:59:58.116Z,6.26
2018-01-06T19:02:25.577Z,6.21
2018-01-06T19:04:53.051Z,6.22
2018-01-06T19:07:20.808Z,6.37
2018-01-06T19:09:48.289Z,6.33
2018-01-06T19:12:16.420Z,6.34
2018-01-06T19:14:44.413Z,6.22
2018-01-06T19:17:11.865Z,6.37
2018-01-06T19:19:40.297Z,6.43
2018-01-06T19:22:08.083Z,6.29
2018-01-06T19:24:35.534Z,6.46
2018-01-06T19:27:03.197Z,6.26
2018-01-06T19:29:31.022Z,6.30
2018-01-06T19:31:58.483Z,6.45
2018-01-06T19:34:26.161Z,6.42
2018-01-06T19:36:54.625Z,6.28
2018-01-06T19:39:22.476Z,6.36
2018-01-06T19:41:49.934Z,6.31
2018-01-06T19:44:18.222Z,6.33
2018-01-06T19:46:46.470Z,6.37
2018-01-06T19:49:15.040Z,6.27
2018-01-06T19:51:43.367Z,6.44
2018-01-06T19:54:10.892Z,6.50
2018-01-06T19:56:38.382Z,6.25
2018-01-06T19:59:06.385Z,6.32
2018-01-06T20:01:34.676Z,6.32
2018-01-06T20:04:02.746Z,6.47
2018-01-06T20:06:30.582Z,6.49
2018-01-06T20:08:58.062Z,6.25
2018-01-06T20:11:25.997Z,6.41
2018-01-06T20:13:56.041Z,6.56
2018-01-06T20:16:24.759Z,6.59
2018-01-06T20:18:52.242Z,6.46
2018-01-06T20:21:20.288Z,6.42
2018-01-06T20:23:48.216Z,6.42
2018-01-06T20:26:16.156Z,6.46
2018-01-06T20:28:44.545Z,6.32
2018-01-06T20:31:12.001Z,6.36
2018-01-06T20:33:39.467Z,6.45
2018-01-06T20:36:08.094Z,6.23
2018-01-06T20:38:35.604Z,6.29
2018-01-06T20:41:03.341Z,6.47
2018-01-06T20:43:31.104Z,6.52
2018-01-06T20:45:58.564Z,6.52
2018-01-06T20:48:26.106Z,6.48
2018-01-06T20:50:54.100Z,6.56
2018-01-06T20:53:21.577Z,6.57
2018-01-06T20:55:49.033Z,6.47
2018-01-06T20:58:17.687Z,6.24
2018-01-06T21:00:45.846Z,6.38
2018-01-06T21:03:13.308Z,6.42
2018-01-06T21:05:41.616Z,6.27
2018-01-06T21:08:09.161Z,6.26
2018-01-06T21:10:37.500Z,6.31
2018-01-06T21:13:05.222Z,6.46
2018-01-06T21:15:33.695Z,6.30
2018-01-06T21:18:01.149Z,6.29
2018-01-06T21:20:29.150Z,6.24
2018-01-06T21:22:56.604Z,6.23
2018-01-06T21:25:25.022Z,6.26
2018-01-06T21:27:53.082Z,6.24
2018-01-06T21:30:20.545Z,6.24
2018-01-06T21:32:48.004Z,6.42
2018-01-06T21:35:16.041Z,6.34
2018-01-06T21:37:43.590Z,6.49
2018-01-06T21:40:11.071Z,6.45
2018-01-06T21:42:39.090Z,6.30
2018-01-06T21:45:06.594Z,6.47
2018-01-06T21:47:34.114Z,6.51
2018-01-06T21:50:01.894Z,6.48
2018-01-06T21:52:29.353Z,6.27
2018-01-06T21:54:56.822Z,6.30
2018-01-06T21:57:24.426Z,6.25
2018-01-06T21:59:51.916Z,6.40
2018-01-06T22:02:19.409Z,6.41
2018-01-06T22:04:47.401Z,6.46
2018-01-06T22:07:14.944Z,6.32
2018-01-06T22:09:42.396Z,6.26
2018-01-06T22:12:10.713Z,6.41
2018-01-06T22:14:38.187Z,6.34
2018-01-06T22:17:06.025Z,6.11
2018-01-06T22:19:33.904Z,6.17
2018-01-06T22:22:01.908Z,6.16
2018-01-06T22:24:29.937Z,6.08
2018-01-06T22:26:57.933Z,6.12
2018-01-06T22:29:25.721Z,6.09
2018-01-06T22:31:53.725Z,6.23
2018-01-06T22:34:21.549Z,6.15
2018-01-06T22:36:49.097Z,6.12
2018-01-06T22:39:16.644Z,6.13
2018-01-06T22:41:44.838Z,6.12
2018-01-06T22:44:12.290Z,6.24
2018-01-06T22:46:39.754Z,6.05
2018-01-06T22:49:08.149Z,5.98
2018-01-06T22:51:35.822Z,5.98
2018-01-06T22:54:03.989Z,6.07
2018-01-06T22:56:32.001Z,6.07
2018-01-06T22:58:59.720Z,6.05
2018-01-06T23:01:27.205Z,5.98
2018-01-06T23:03:55.377Z,5.96
2018-01-06T23:06:23.119Z,5.96
2018-01-06T23:08:50.765Z,6.02
2018-01-06T23:11:19.321Z,5.98
2018-01-06T23:13:47.094Z,6.04
2018-01-06T23:16:14.576Z,6.02
2018-01-06T23:18:43.069Z,5.83
2018-01-06T23:21:10.736Z,5.81
2018-01-06T23:23:38.189Z,5.78
2018-01-06T23:26:06.190Z,6.03
2018-01-06T23:28:33.654Z,6.12
2018-01-06T23:31:01.125Z,5.99
2018-01-06T23:33:28.885Z,5.94
2018-01-06T23:35:56.345Z,5.87
2018-01-06T23:38:23.805Z,6.18
2018-01-06T23:40:51.569Z,6.17
2018-01-06T23:43:19.031Z,6.02
2018-01-06T23:45:46.499Z,5.93
2018-01-06T23:48:14.237Z,5.79
2018-01-06T23:50:41.700Z,6.03
2018-01-06T23:53:09.161Z,5.80
2018-01-06T23:55:37.246Z,6.01
2018-01-06T23:58:04.712Z,5.82
